Time;durP1;ratioP1;P1;durP2;ratioP2;P2;SDS_P1;SDS_P2;PMS_P1;PMS_P2;Temp;Humidity;BMP_temperature;BMP_pressure;BME280_temperature;BME280_humidity;BME280_pressure;Samples;Min_cycle;Max_cycle;Signal;HPM_P1;HPM_P2
2023/05/09 00:00:11;;;;;;;0.70;0.70;;;3.60;99.90;;;;;;5093510;28;20211;-70
2023/05/09 00:02:38;;;;;;;0.70;0.70;;;3.50;99.90;;;;;;5092992;28;20220;-70
2023/05/09 00:05:06;;;;;;;0.90;0.90;;;3.50;99.90;;;;;;5077989;28;20203;-71
2023/05/09 00:07:32;;;;;;;0.80;0.80;;;3.50;99.90;;;;;;5072932;28;20197;-71
2023/05/09 00:09:59;;;;;;;0.85;0.85;;;3.40;99.90;;;;;;5073104;28;20193;-71
2023/05/09 00:12:27;;;;;;;0.70;0.70;;;3.40;99.90;;;;;;5072871;28;20609;-71
2023/05/09 00:14:53;;;;;;;0.80;0.80;;;3.40;99.90;;;;;;5072920;28;20778;-71
2023/05/09 00:17:21;;;;;;;0.93;0.93;;;3.30;99.90;;;;;;5055181;28;20283;-70
2023/05/09 00:19:48;;;;;;;0.80;0.80;;;3.20;99.90;;;;;;5054884;28;20217;-70
2023/05/09 00:22:15;;;;;;;0.70;0.70;;;3.10;99.90;;;;;;5072847;28;20200;-70
2023/05/09 00:24:41;;;;;;;0.80;0.80;;;3.00;99.90;;;;;;5072768;28;20185;-70
2023/05/09 00:27:08;;;;;;;0.70;0.70;;;3.00;99.90;;;;;;5072756;28;20200;-70
2023/05/09 00:29:34;;;;;;;0.77;0.77;;;2.90;99.90;;;;;;5072283;28;20251;-70
2023/05/09 00:32:00;;;;;;;0.90;0.90;;;2.80;99.90;;;;;;5072615;28;20197;-70
2023/05/09 00:34:26;;;;;;;0.82;0.82;;;2.80;99.90;;;;;;5072367;28;20559;-70
2023/05/09 00:36:51;;;;;;;0.80;0.80;;;2.70;99.90;;;;;;5072665;28;20192;-70
2023/05/09 00:39:17;;;;;;;0.70;0.70;;;2.70;99.90;;;;;;5072363;28;20213;-71
2023/05/09 00:41:43;;;;;;;0.70;0.70;;;2.60;99.90;;;;;;5072465;28;20189;-70
2023/05/09 00:44:08;;;;;;;0.80;0.80;;;2.60;99.90;;;;;;5072613;28;20212;-71
2023/05/09 00:46:34;;;;;;;2.00;1.80;;;2.50;99.90;;;;;;5089591;28;20713;-70
2023/05/09 00:49:00;;;;;;;0.80;0.80;;;2.50;99.90;;;;;;5092719;28;20308;-71
2023/05/09 00:51:27;;;;;;;0.80;0.80;;;2.40;99.90;;;;;;5092508;28;20735;-71
2023/05/09 00:53:53;;;;;;;0.70;0.70;;;2.40;99.90;;;;;;5092697;28;20192;-71
2023/05/09 00:56:18;;;;;;;0.90;0.90;;;2.30;99.90;;;;;;5092500;28;20199;-71
2023/05/09 00:58:44;;;;;;;0.88;0.88;;;2.30;99.90;;;;;;5092508;28;20207;-71
2023/05/09 01:01:10;;;;;;;0.80;0.80;;;2.20;99.90;;;;;;5078671;28;20272;-69
2023/05/09 01:03:39;;;;;;;0.80;0.80;;;2.10;99.90;;;;;;5067949;23;20350;-74
2023/05/09 01:06:59;;;;;;;0.95;0.93;;;2.10;99.90;;;;;;5051926;28;20197;-73
2023/05/09 01:09:47;;;;;;;0.80;0.80;;;2.00;99.90;;;;;;4971376;28;20203;-73
2023/05/09 01:12:22;;;;;;;0.70;0.70;;;2.00;99.90;;;;;;4971422;28;20606;-73
2023/05/09 01:14:54;;;;;;;0.77;0.77;;;2.00;99.90;;;;;;4971436;28;20246;-72
2023/05/09 01:17:30;;;;;;;0.73;0.73;;;1.90;99.90;;;;;;4971323;28;20579;-73
2023/05/09 01:19:59;;;;;;;0.80;0.80;;;1.90;99.90;;;;;;4987498;28;20227;-72
2023/05/09 01:22:34;;;;;;;2.25;1.25;;;1.90;99.90;;;;;;4971207;28;20200;-72
2023/05/09 01:25:31;;;;;;;0.80;0.80;;;1.90;99.90;;;;;;4971201;28;20641;-72
2023/05/09 01:28:20;;;;;;;0.90;0.90;;;1.80;99.90;;;;;;4971343;28;20608;-72
2023/05/09 01:30:48;;;;;;;1.17;1.13;;;1.80;99.90;;;;;;4971233;28;20208;-72
2023/05/09 01:33:18;;;;;;;1.00;1.00;;;1.80;99.90;;;;;;4971180;28;20768;-72
2023/05/09 01:35:53;;;;;;;0.80;0.80;;;1.70;99.90;;;;;;4987365;28;20578;-72
2023/05/09 01:38:22;;;;;;;0.90;0.90;;;1.70;99.90;;;;;;4970946;28;20204;-73
2023/05/09 01:40:51;;;;;;;2.05;1.27;;;1.70;99.90;;;;;;4973687;28;20192;-73
2023/05/09 01:43:20;;;;;;;0.80;0.80;;;1.70;99.90;;;;;;5018667;28;20209;-73
2023/05/09 01:45:48;;;;;;;0.80;0.80;;;1.70;99.90;;;;;;5035928;28;20193;-72
2023/05/09 01:48:14;;;;;;;0.73;0.73;;;1.60;99.90;;;;;;5018111;28;20205;-73
2023/05/09 01:50:42;;;;;;;0.73;0.73;;;1.60;99.90;;;;;;5017929;28;20204;-73
2023/05/09 01:53:10;;;;;;;0.70;0.70;;;1.60;99.90;;;;;;5035710;28;20248;-73
2023/05/09 01:55:38;;;;;;;0.80;0.80;;;1.50;99.90;;;;;;5035561;28;20645;-73
2023/05/09 01:58:05;;;;;;;0.70;0.70;;;1.50;99.90;;;;;;5054496;28;20259;-73
2023/05/09 02:00:34;;;;;;;0.80;0.80;;;1.50;99.90;;;;;;5054822;28;20200;-73
2023/05/09 02:03:02;;;;;;;0.80;0.80;;;1.50;99.90;;;;;;5035475;28;20194;-72
2023/05/09 02:05:29;;;;;;;0.65;0.65;;;1.50;99.90;;;;;;5035165;28;20688;-73
2023/05/09 02:07:57;;;;;;;0.90;0.90;;;1.50;99.90;;;;;;5035631;28;20645;-73
2023/05/09 02:10:24;;;;;;;0.80;0.80;;;1.40;99.90;;;;;;5035198;28;20202;-72
2023/05/09 02:12:50;;;;;;;0.70;0.70;;;1.40;99.90;;;;;;5017668;28;20221;-73
2023/05/09 02:15:16;;;;;;;0.80;0.80;;;1.40;99.90;;;;;;5035410;28;20190;-73
2023/05/09 02:17:42;;;;;;;0.70;0.70;;;1.40;99.90;;;;;;5035288;28;20631;-73
2023/05/09 02:20:09;;;;;;;0.93;0.93;;;1.30;99.90;;;;;;5035151;28;20218;-72
2023/05/09 02:22:35;;;;;;;0.80;0.80;;;1.30;99.90;;;;;;5038412;28;20574;-73
2023/05/09 02:25:04;;;;;;;0.90;0.90;;;1.30;99.90;;;;;;5055159;28;20178;-72
2023/05/09 02:27:32;;;;;;;0.80;0.80;;;1.20;99.90;;;;;;5054744;28;20194;-72
2023/05/09 02:30:01;;;;;;;0.75;0.75;;;1.20;99.90;;;;;;5055013;28;20276;-72
2023/05/09 02:32:30;;;;;;;1.00;0.98;;;1.20;99.90;;;;;;5054835;28;20540;-73
2023/05/09 02:34:57;;;;;;;0.70;0.70;;;1.20;99.90;;;;;;5054909;28;20225;-73
2023/05/09 02:37:24;;;;;;;0.80;0.80;;;1.20;99.90;;;;;;5036458;28;20209;-72
2023/05/09 02:39:50;;;;;;;0.80;0.80;;;1.20;99.90;;;;;;5054799;28;20209;-72
2023/05/09 02:42:28;;;;;;;0.70;0.70;;;1.20;99.90;;;;;;5054779;28;20201;-72
2023/05/09 02:44:55;;;;;;;0.80;0.80;;;1.20;99.90;;;;;;5054901;28;20185;-72
2023/05/09 02:47:21;;;;;;;0.75;0.75;;;1.20;99.90;;;;;;5054605;28;20190;-73
2023/05/09 02:49:47;;;;;;;0.80;0.80;;;1.20;99.90;;;;;;5054657;28;20725;-72
2023/05/09 02:52:13;;;;;;;0.73;0.73;;;1.20;99.90;;;;;;5054215;28;20201;-72
2023/05/09 02:54:38;;;;;;;0.80;0.80;;;1.20;99.90;;;;;;5054458;28;20255;-72
2023/05/09 02:57:04;;;;;;;0.70;0.70;;;1.20;99.90;;;;;;5054602;28;20639;-72
2023/05/09 02:59:30;;;;;;;0.80;0.80;;;1.10;99.90;;;;;;5054332;28;20205;-72
2023/05/09 03:01:57;;;;;;;0.73;0.73;;;1.10;99.90;;;;;;5035722;28;20785;-73
2023/05/09 03:04:24;;;;;;;0.70;0.70;;;1.20;99.90;;;;;;5053800;28;20684;-73
2023/05/09 03:06:50;;;;;;;0.70;0.70;;;1.20;99.90;;;;;;5054618;28;20190;-72
2023/05/09 03:09:16;;;;;;;0.73;0.73;;;1.20;99.90;;;;;;5054538;28;20197;-72
2023/05/09 03:11:42;;;;;;;0.68;0.68;;;1.20;99.90;;;;;;5054246;28;20258;-72
2023/05/09 03:14:09;;;;;;;0.70;0.70;;;1.30;99.90;;;;;;5054383;28;20332;-73
2023/05/09 03:16:35;;;;;;;0.80;0.80;;;1.30;99.90;;;;;;5036358;28;20736;-72
2023/05/09 03:19:01;;;;;;;0.80;0.80;;;1.30;99.90;;;;;;5054152;28;20209;-73
2023/05/09 03:21:27;;;;;;;0.80;0.80;;;1.30;99.90;;;;;;5054107;28;20268;-72
2023/05/09 03:23:53;;;;;;;0.80;0.80;;;1.30;99.90;;;;;;5054145;28;20271;-72
2023/05/09 03:26:18;;;;;;;0.90;0.90;;;1.30;99.90;;;;;;5054054;28;20193;-72
2023/05/09 03:28:45;;;;;;;0.80;0.80;;;1.30;99.90;;;;;;5054081;28;20292;-73
2023/05/09 03:31:11;;;;;;;0.70;0.70;;;1.40;99.90;;;;;;5053909;28;20687;-73
2023/05/09 03:33:36;;;;;;;0.75;0.75;;;1.40;99.90;;;;;;5053811;28;20202;-72
2023/05/09 03:36:03;;;;;;;0.80;0.80;;;1.40;99.90;;;;;;5053884;28;20606;-73
2023/05/09 03:38:29;;;;;;;0.80;0.80;;;1.50;99.90;;;;;;5035602;28;20385;-73
2023/05/09 03:40:55;;;;;;;0.90;0.90;;;1.60;99.90;;;;;;5053848;28;20743;-72
2023/05/09 03:43:21;;;;;;;1.67;1.52;;;1.60;99.90;;;;;;5053609;28;20197;-74
2023/05/09 03:45:46;;;;;;;0.70;0.70;;;1.70;99.90;;;;;;5053777;28;20194;-73
2023/05/09 03:48:12;;;;;;;0.70;0.70;;;1.80;99.90;;;;;;5053691;28;20194;-73
2023/05/09 03:50:38;;;;;;;0.80;0.80;;;2.00;99.90;;;;;;5053231;28;20263;-73
2023/05/09 03:53:03;;;;;;;0.80;0.80;;;2.00;99.90;;;;;;5035701;28;20668;-73
2023/05/09 03:55:29;;;;;;;0.80;0.80;;;2.10;99.90;;;;;;5053354;28;20193;-72
2023/05/09 03:57:55;;;;;;;0.80;0.80;;;2.20;99.90;;;;;;5053572;28;20190;-72
2023/05/09 04:00:21;;;;;;;1.23;1.13;;;2.30;99.90;;;;;;5053211;28;20575;-73
2023/05/09 04:02:48;;;;;;;1.90;1.50;;;2.40;99.90;;;;;;5052622;28;20546;-71
2023/05/09 04:05:14;;;;;;;0.70;0.70;;;2.50;99.90;;;;;;5053087;28;20218;-73
2023/05/09 04:07:40;;;;;;;0.80;0.80;;;2.60;99.90;;;;;;5052853;28;21258;-73
2023/05/09 04:10:07;;;;;;;0.80;0.80;;;2.70;99.90;;;;;;5053245;28;20197;-72
2023/05/09 04:12:33;;;;;;;0.90;0.90;;;2.90;99.90;;;;;;5053100;28;20719;-70
2023/05/09 04:14:58;;;;;;;0.80;0.80;;;3.00;99.90;;;;;;5053115;28;20273;-71
2023/05/09 04:17:24;;;;;;;0.80;0.80;;;3.10;99.90;;;;;;5053035;28;20658;-71
2023/05/09 04:19:50;;;;;;;0.88;0.88;;;3.20;99.90;;;;;;5052883;28;20654;-72
2023/05/09 04:22:16;;;;;;;0.85;0.85;;;3.30;99.90;;;;;;5053107;28;20558;-73
2023/05/09 04:24:41;;;;;;;0.80;0.80;;;3.40;99.90;;;;;;5052968;28;20195;-71
2023/05/09 04:27:07;;;;;;;0.80;0.80;;;3.50;99.90;;;;;;5052891;28;20256;-72
2023/05/09 04:29:34;;;;;;;0.80;0.80;;;3.70;99.90;;;;;;5052585;28;20197;-71
2023/05/09 04:32:00;;;;;;;0.68;0.68;;;3.80;99.90;;;;;;5052891;28;20185;-72
2023/05/09 04:34:27;;;;;;;0.80;0.80;;;4.00;99.90;;;;;;5034812;28;20197;-73
2023/05/09 04:36:53;;;;;;;0.70;0.70;;;4.20;99.90;;;;;;5052880;28;20200;-72
2023/05/09 04:39:18;;;;;;;0.80;0.80;;;4.30;99.90;;;;;;5052447;28;20215;-72
2023/05/09 04:41:46;;;;;;;0.80;0.80;;;4.50;99.90;;;;;;5034919;28;20193;-72
2023/05/09 04:44:12;;;;;;;0.70;0.70;;;4.60;99.90;;;;;;5052669;28;20315;-72
2023/05/09 04:46:39;;;;;;;0.70;0.70;;;4.80;99.90;;;;;;5052446;28;20201;-73
2023/05/09 04:49:05;;;;;;;0.90;0.90;;;5.00;99.90;;;;;;5052713;28;20204;-72
2023/05/09 04:51:31;;;;;;;0.70;0.70;;;5.10;99.90;;;;;;5052531;28;20197;-73
2023/05/09 04:53:56;;;;;;;0.70;0.70;;;5.30;99.90;;;;;;5052630;28;20255;-73
2023/05/09 04:56:22;;;;;;;0.70;0.70;;;5.40;99.90;;;;;;5052368;28;20197;-72
2023/05/09 04:58:48;;;;;;;0.70;0.70;;;5.60;99.90;;;;;;5052422;28;20574;-73
2023/05/09 05:01:15;;;;;;;0.80;0.80;;;5.80;99.90;;;;;;5052448;28;20190;-73
2023/05/09 05:03:41;;;;;;;2.17;1.65;;;5.90;99.90;;;;;;5029364;28;20564;-73
2023/05/09 05:06:07;;;;;;;0.70;0.70;;;6.10;99.90;;;;;;5014895;28;20678;-72
2023/05/09 05:08:33;;;;;;;0.80;0.80;;;6.30;99.90;;;;;;5032429;28;20281;-72
2023/05/09 05:10:59;;;;;;;0.75;0.75;;;6.50;99.90;;;;;;5032359;28;20194;-73
2023/05/09 05:13:24;;;;;;;0.70;0.70;;;6.70;99.90;;;;;;5032354;28;20198;-74
2023/05/09 05:15:51;;;;;;;0.73;0.73;;;6.90;99.90;;;;;;5034705;28;20200;-72
2023/05/09 05:18:16;;;;;;;0.60;0.60;;;7.10;99.90;;;;;;5036573;28;20691;-72
2023/05/09 05:20:42;;;;;;;0.60;0.60;;;7.20;99.90;;;;;;5018631;28;20194;-73
2023/05/09 05:23:09;;;;;;;0.90;0.90;;;7.40;99.90;;;;;;5036476;28;20194;-74
2023/05/09 05:25:34;;;;;;;0.73;0.73;;;7.60;99.90;;;;;;5036259;28;20186;-73
2023/05/09 05:28:00;;;;;;;0.70;0.70;;;7.80;99.90;;;;;;5036212;28;20202;-74
2023/05/09 05:30:26;;;;;;;0.65;0.65;;;8.00;99.90;;;;;;5036168;28;20202;-74
2023/05/09 05:32:52;;;;;;;0.70;0.70;;;8.20;99.90;;;;;;5036375;28;20269;-74
2023/05/09 05:35:22;;;;;;;0.70;0.70;;;8.40;99.90;;;;;;5036175;28;20669;-74
2023/05/09 05:37:48;;;;;;;0.60;0.60;;;8.60;99.90;;;;;;5036026;28;20228;-73
2023/05/09 05:40:14;;;;;;;0.60;0.60;;;8.70;99.90;;;;;;5036061;28;20565;-73
2023/05/09 05:42:40;;;;;;;0.70;0.70;;;8.80;99.90;;;;;;5035887;28;21197;-73
2023/05/09 05:45:06;;;;;;;0.60;0.60;;;9.00;99.90;;;;;;5035985;28;20187;-74
2023/05/09 05:47:35;;;;;;;1.08;0.98;;;9.20;99.90;;;;;;5035959;28;20197;-73
2023/05/09 05:50:03;;;;;;;0.60;0.60;;;9.40;99.90;;;;;;5035924;28;20217;-73
2023/05/09 05:52:29;;;;;;;0.90;0.90;;;9.50;99.90;;;;;;5035707;28;20259;-73
2023/05/09 05:54:55;;;;;;;0.70;0.70;;;9.70;99.90;;;;;;5035897;28;20196;-74
2023/05/09 05:57:21;;;;;;;0.80;0.80;;;9.90;99.90;;;;;;5018190;28;20288;-73
2023/05/09 05:59:48;;;;;;;0.60;0.60;;;10.00;99.90;;;;;;5035821;28;20722;-74
2023/05/09 06:02:15;;;;;;;1.08;1.08;;;10.20;99.90;;;;;;5035570;28;20273;-73
2023/05/09 06:04:41;;;;;;;0.75;0.75;;;10.30;99.90;;;;;;5048170;28;20239;-73
2023/05/09 06:07:07;;;;;;;0.50;0.50;;;10.50;99.90;;;;;;5055608;28;20194;-73
2023/05/09 06:09:32;;;;;;;0.57;0.57;;;10.60;99.90;;;;;;5055040;28;20201;-73
2023/05/09 06:11:58;;;;;;;0.60;0.60;;;10.70;99.90;;;;;;5055289;28;20201;-73
2023/05/09 06:14:24;;;;;;;0.50;0.50;;;10.90;99.90;;;;;;5055355;28;20206;-73
2023/05/09 06:16:50;;;;;;;0.88;0.85;;;11.00;99.90;;;;;;5055432;28;20650;-74
2023/05/09 06:19:17;;;;;;;2.97;0.98;;;11.10;99.90;;;;;;5055334;28;20258;-73
2023/05/09 06:21:42;;;;;;;0.60;0.60;;;11.20;99.90;;;;;;5055200;28;20194;-73
2023/05/09 06:24:08;;;;;;;0.73;0.73;;;11.40;99.90;;;;;;5055167;28;20212;-73
2023/05/09 06:26:34;;;;;;;0.47;0.47;;;11.50;99.90;;;;;;5054491;28;20194;-74
2023/05/09 06:29:00;;;;;;;2.58;1.08;;;11.70;99.90;;;;;;5055151;28;20224;-73
2023/05/09 06:31:26;;;;;;;0.50;0.50;;;11.90;99.90;;;;;;5054933;28;20225;-74
2023/05/09 06:33:52;;;;;;;0.55;0.55;;;12.10;99.90;;;;;;5037320;28;20200;-74
2023/05/09 06:36:18;;;;;;;0.85;0.85;;;12.20;99.90;;;;;;5055113;28;20632;-74
2023/05/09 06:38:43;;;;;;;0.40;0.40;;;12.40;99.90;;;;;;5054473;28;20259;-74
2023/05/09 06:41:09;;;;;;;0.57;0.57;;;12.40;99.90;;;;;;5054918;28;20196;-75
2023/05/09 06:43:35;;;;;;;0.55;0.55;;;12.70;99.90;;;;;;5054820;28;20659;-73
2023/05/09 06:46:01;;;;;;;1.58;1.13;;;12.90;99.90;;;;;;5054878;28;20189;-74
2023/05/09 06:48:27;;;;;;;0.43;0.43;;;13.10;99.90;;;;;;5054706;28;20182;-74
2023/05/09 06:50:52;;;;;;;0.50;0.50;;;13.20;99.90;;;;;;5045369;28;20608;-74
2023/05/09 06:53:18;;;;;;;0.60;0.60;;;13.50;99.90;;;;;;5054809;28;20196;-73
2023/05/09 06:55:44;;;;;;;0.50;0.50;;;13.60;99.90;;;;;;5054936;28;20254;-74
2023/05/09 06:58:10;;;;;;;0.40;0.40;;;13.90;99.90;;;;;;5054575;28;20216;-74
2023/05/09 07:00:36;;;;;;;0.60;0.60;;;14.10;99.90;;;;;;5054407;28;20212;-74
2023/05/09 07:03:02;;;;;;;0.40;0.40;;;14.50;99.90;;;;;;5054257;28;20193;-74
2023/05/09 07:05:28;;;;;;;0.60;0.60;;;14.90;99.90;;;;;;5054095;28;20687;-74
2023/05/09 07:07:54;;;;;;;0.40;0.40;;;15.00;99.90;;;;;;5054304;28;20277;-74
2023/05/09 07:10:23;;;;;;;0.70;0.70;;;14.80;99.90;;;;;;5054185;28;20247;-74
2023/05/09 07:12:49;;;;;;;0.90;0.70;;;14.60;99.90;;;;;;5036271;28;20220;-73
2023/05/09 07:15:16;;;;;;;0.68;0.68;;;14.60;99.90;;;;;;5054155;28;20235;-74
2023/05/09 07:17:42;;;;;;;0.60;0.60;;;14.70;99.90;;;;;;5054225;28;20538;-74
2023/05/09 07:20:08;;;;;;;0.40;0.40;;;14.90;99.90;;;;;;5054091;28;20232;-74
2023/05/09 07:22:34;;;;;;;0.40;0.40;;;14.90;99.90;;;;;;5054039;28;20185;-72
2023/05/09 07:24:59;;;;;;;0.57;0.57;;;15.10;99.90;;;;;;5054113;28;20591;-73
2023/05/09 07:27:25;;;;;;;2.92;1.45;;;15.40;99.90;;;;;;5053910;28;20185;-72
2023/05/09 07:29:51;;;;;;;0.45;0.45;;;15.50;99.90;;;;;;5054084;28;20201;-73
2023/05/09 07:32:20;;;;;;;0.73;0.73;;;15.40;99.90;;;;;;5054082;28;20193;-73
2023/05/09 07:34:47;;;;;;;0.65;0.65;;;15.20;99.90;;;;;;5053779;28;20201;-72
2023/05/09 07:37:13;;;;;;;0.50;0.50;;;14.80;99.90;;;;;;5053056;28;20660;-73
2023/05/09 07:39:38;;;;;;;1.90;1.20;;;14.60;99.90;;;;;;5053390;28;20350;-73
2023/05/09 07:42:04;;;;;;;0.40;0.40;;;14.80;99.90;;;;;;5053624;28;20193;-72
2023/05/09 07:44:30;;;;;;;0.43;0.43;;;14.70;99.90;;;;;;5053687;28;20186;-72
2023/05/09 07:46:58;;;;;;;0.52;0.52;;;15.20;99.90;;;;;;5053753;28;20193;-74
2023/05/09 07:49:24;;;;;;;4.03;1.10;;;15.40;99.90;;;;;;5053470;28;20193;-73
2023/05/09 07:51:50;;;;;;;0.50;0.50;;;15.50;99.90;;;;;;5035782;28;20679;-73
2023/05/09 07:54:15;;;;;;;1.15;0.60;;;15.40;99.90;;;;;;5053655;28;20220;-73
2023/05/09 07:56:41;;;;;;;1.63;1.05;;;15.40;99.90;;;;;;5053455;28;20194;-73
2023/05/09 07:59:07;;;;;;;0.70;0.70;;;15.50;99.90;;;;;;5053609;28;20680;-73
2023/05/09 08:01:33;;;;;;;1.60;1.10;;;15.50;99.90;;;;;;5053119;28;20205;-74
2023/05/09 08:03:59;;;;;;;0.43;0.43;;;15.50;99.90;;;;;;5053032;28;20757;-73
2023/05/09 08:06:25;;;;;;;1.63;1.02;;;15.30;99.40;;;;;;5053138;28;20259;-73
2023/05/09 08:08:51;;;;;;;2.65;1.38;;;15.20;99.40;;;;;;5053289;28;20280;-72
2023/05/09 08:11:17;;;;;;;0.45;0.45;;;15.60;99.90;;;;;;5035386;28;20197;-72
2023/05/09 08:13:43;;;;;;;0.77;0.68;;;15.80;99.90;;;;;;5053114;28;20196;-72
2023/05/09 08:16:09;;;;;;;0.47;0.47;;;16.30;99.90;;;;;;5053033;28;20208;-72
2023/05/09 08:18:35;;;;;;;0.60;0.60;;;16.30;99.00;;;;;;5035015;28;20672;-73
2023/05/09 08:21:00;;;;;;;0.73;0.52;;;16.80;98.90;;;;;;5053129;28;20201;-73
2023/05/09 08:23:28;;;;;;;0.50;0.50;;;17.00;97.10;;;;;;5052886;28;20212;-73
2023/05/09 08:25:55;;;;;;;0.30;0.30;;;17.30;97.40;;;;;;5053113;28;20182;-73
2023/05/09 08:28:22;;;;;;;0.38;0.38;;;17.70;97.20;;;;;;5052678;28;20565;-73
2023/05/09 08:30:52;;;;;;;0.30;0.30;;;17.40;97.10;;;;;;5052673;28;20262;-74
2023/05/09 08:33:18;;;;;;;0.95;0.85;;;17.20;96.40;;;;;;5052956;28;20687;-74
2023/05/09 08:35:44;;;;;;;0.55;0.55;;;17.30;95.70;;;;;;5052859;28;20269;-74
2023/05/09 08:38:10;;;;;;;0.50;0.50;;;17.30;96.30;;;;;;5052698;28;20256;-74
2023/05/09 08:40:36;;;;;;;0.40;0.40;;;17.20;95.30;;;;;;5034725;28;20209;-74
2023/05/09 08:43:06;;;;;;;0.60;0.60;;;17.50;95.20;;;;;;5052801;28;20193;-74
2023/05/09 08:45:37;;;;;;;0.30;0.30;;;17.40;95.40;;;;;;5052653;28;20684;-73
2023/05/09 08:48:03;;;;;;;0.50;0.50;;;17.40;95.50;;;;;;5052696;28;20679;-73
2023/05/09 08:50:29;;;;;;;0.63;0.50;;;17.50;94.50;;;;;;5052163;28;20203;-75
2023/05/09 08:52:55;;;;;;;0.45;0.32;;;17.40;95.10;;;;;;5052636;28;20199;-74
2023/05/09 08:55:21;;;;;;;0.35;0.35;;;17.30;94.30;;;;;;5052443;28;20197;-73
2023/05/09 08:57:47;;;;;;;0.60;0.60;;;17.50;95.10;;;;;;5052559;28;20204;-73
2023/05/09 09:00:14;;;;;;;0.70;0.70;;;17.60;93.80;;;;;;5052242;28;20216;-73
2023/05/09 09:02:43;;;;;;;0.60;0.60;;;17.70;95.60;;;;;;5052138;28;20607;-73
2023/05/09 09:05:09;;;;;;;1.02;0.63;;;17.60;94.50;;;;;;5052231;28;20700;-73
2023/05/09 09:07:37;;;;;;;0.60;0.60;;;18.10;94.80;;;;;;5052264;28;20216;-73
2023/05/09 09:10:04;;;;;;;0.20;0.20;;;18.40;92.20;;;;;;5052416;28;20260;-73
2023/05/09 09:12:31;;;;;;;0.30;0.30;;;18.20;92.60;;;;;;5051996;28;20288;-74
2023/05/09 09:15:06;;;;;;;0.40;0.40;;;17.80;91.10;;;;;;5052391;28;20197;-74
2023/05/09 09:17:34;;;;;;;0.65;0.50;;;17.50;93.70;;;;;;5034324;28;20223;-73
2023/05/09 09:20:04;;;;;;;0.40;0.40;;;17.70;94.50;;;;;;5052199;28;20219;-73
2023/05/09 09:22:33;;;;;;;0.50;0.50;;;17.90;92.70;;;;;;5052343;28;20194;-74
2023/05/09 09:25:02;;;;;;;0.40;0.40;;;18.20;92.60;;;;;;5052357;28;20648;-74
2023/05/09 09:27:28;;;;;;;0.75;0.75;;;18.60;92.10;;;;;;5051900;28;20374;-73
2023/05/09 09:30:05;;;;;;;0.30;0.30;;;18.70;92.40;;;;;;5043000;28;20266;-75
2023/05/09 09:32:34;;;;;;;0.73;0.50;;;18.70;91.50;;;;;;5052072;28;20561;-73
2023/05/09 09:35:08;;;;;;;0.93;0.88;;;18.30;92.70;;;;;;5052171;28;20182;-73
2023/05/09 09:37:35;;;;;;;0.57;0.57;;;18.40;91.10;;;;;;5042780;28;20201;-73
2023/05/09 09:40:02;;;;;;;0.82;0.55;;;18.30;91.20;;;;;;5014772;28;20214;-74
2023/05/09 09:42:43;;;;;;;0.52;0.52;;;18.30;92.10;;;;;;5030773;28;20233;-74
2023/05/09 09:45:17;;;;;;;0.40;0.40;;;18.40;90.80;;;;;;5032185;28;20194;-73
2023/05/09 09:47:44;;;;;;;0.30;0.30;;;18.30;90.90;;;;;;5032107;28;20640;-75
2023/05/09 09:50:11;;;;;;;0.40;0.40;;;18.10;90.30;;;;;;5032172;28;20205;-74
2023/05/09 09:52:42;;;;;;;0.52;0.50;;;17.80;89.90;;;;;;5035657;28;20193;-75
2023/05/09 09:55:08;;;;;;;2.40;0.82;;;17.40;90.50;;;;;;5050725;28;20201;-74
2023/05/09 09:57:36;;;;;;;0.40;0.40;;;17.00;92.50;;;;;;5051596;28;20596;-73
2023/05/09 10:00:03;;;;;;;0.60;0.60;;;17.10;91.20;;;;;;5051890;28;20205;-73
2023/05/09 10:02:29;;;;;;;2.47;0.75;;;17.10;90.60;;;;;;5054574;28;20190;-73
2023/05/09 10:04:55;;;;;;;0.50;0.50;;;17.40;92.10;;;;;;5055458;28;20636;-74
2023/05/09 10:07:24;;;;;;;0.50;0.50;;;17.60;90.90;;;;;;5055216;28;20708;-74
2023/05/09 10:09:50;;;;;;;0.30;0.30;;;17.70;89.40;;;;;;5055513;28;20192;-74
2023/05/09 10:12:18;;;;;;;0.40;0.40;;;17.90;88.90;;;;;;5055484;28;20193;-72
2023/05/09 10:14:46;;;;;;;0.40;0.40;;;17.80;88.70;;;;;;5055467;28;20277;-74
2023/05/09 10:17:13;;;;;;;0.40;0.40;;;17.40;89.20;;;;;;5055421;28;20542;-75
2023/05/09 10:19:44;;;;;;;0.57;0.57;;;17.50;90.30;;;;;;5055224;28;20243;-73
2023/05/09 10:22:13;;;;;;;0.52;0.52;;;17.90;88.90;;;;;;5055200;28;20597;-73
2023/05/09 10:24:54;;;;;;;0.55;0.55;;;18.00;88.80;;;;;;5055197;28;20200;-73
2023/05/09 10:27:24;;;;;;;0.40;0.40;;;17.70;89.50;;;;;;5055057;28;20212;-73
2023/05/09 10:30:05;;;;;;;0.55;0.55;;;18.00;90.30;;;;;;5055193;28;20683;-73
2023/05/09 10:32:50;;;;;;;1.73;0.57;;;18.00;90.20;;;;;;5055065;28;20220;-72
2023/05/09 10:35:18;;;;;;;1.08;0.73;;;18.30;88.20;;;;;;5055112;28;20205;-73
2023/05/09 10:37:47;;;;;;;1.55;0.80;;;18.60;88.00;;;;;;5054850;28;20566;-74
2023/05/09 10:40:14;;;;;;;0.77;0.68;;;19.20;87.20;;;;;;5054906;28;20607;-72
2023/05/09 10:42:43;;;;;;;1.02;0.35;;;19.70;84.60;;;;;;5054808;28;20196;-73
2023/05/09 10:45:13;;;;;;;0.40;0.40;;;19.60;84.60;;;;;;5054902;28;20691;-72
2023/05/09 10:47:40;;;;;;;0.35;0.35;;;19.20;87.30;;;;;;5054774;28;21750;-73
2023/05/09 10:50:12;;;;;;;0.45;0.35;;;19.60;82.60;;;;;;5053512;28;20730;-74
2023/05/09 10:53:07;;;;;;;0.47;0.47;;;19.60;83.80;;;;;;5054538;28;20220;-73
2023/05/09 10:55:46;;;;;;;0.40;0.40;;;20.30;86.30;;;;;;5027998;28;20204;-79
2023/05/09 10:58:39;;;;;;;0.30;0.30;;;20.20;79.60;;;;;;5054778;28;20738;-79
2023/05/09 11:01:06;;;;;;;0.52;0.50;;;20.60;81.10;;;;;;5036706;28;20215;-80
2023/05/09 11:03:57;;;;;;;1.45;0.75;;;20.00;81.60;;;;;;5054130;28;20286;-79
2023/05/09 11:06:46;;;;;;;0.65;0.60;;;20.10;88.80;;;;;;5054354;28;20202;-79
2023/05/09 11:09:34;;;;;;;0.47;0.47;;;20.00;82.50;;;;;;5054552;28;20189;-79
2023/05/09 11:12:07;;;;;;;0.55;0.47;;;20.10;82.40;;;;;;5054323;28;20656;-80
2023/05/09 11:14:41;;;;;;;0.73;0.60;;;20.90;80.40;;;;;;5054295;28;20280;-79
2023/05/09 11:17:28;;;;;;;0.82;0.73;;;21.10;82.60;;;;;;5054278;28;20280;-80
2023/05/09 11:19:58;;;;;;;0.70;0.60;;;21.60;84.10;;;;;;5054038;28;20209;-78
2023/05/09 11:22:31;;;;;;;0.20;0.20;;;21.30;84.50;;;;;;5053992;28;20609;-79
2023/05/09 11:25:06;;;;;;;0.47;0.47;;;21.00;78.50;;;;;;5054324;28;20182;-80
2023/05/09 11:27:42;;;;;;;0.70;0.70;;;21.30;81.00;;;;;;5036348;28;20197;-80
2023/05/09 11:30:09;;;;;;;0.90;0.80;;;21.60;79.60;;;;;;5054061;28;20528;-80
2023/05/09 11:32:44;;;;;;;0.50;0.50;;;21.70;81.40;;;;;;5053881;28;20326;-79
2023/05/09 11:35:16;;;;;;;0.60;0.40;;;21.90;80.00;;;;;;5053760;28;20254;-80
2023/05/09 11:38:03;;;;;;;3.72;1.58;;;22.20;78.60;;;;;;5032609;28;20190;-80
2023/05/09 11:40:30;;;;;;;0.40;0.40;;;22.00;78.00;;;;;;5033673;28;20633;-80
2023/05/09 11:42:57;;;;;;;0.40;0.40;;;22.00;74.70;;;;;;5033957;28;20235;-79
2023/05/09 11:45:26;;;;;;;1.27;0.80;;;21.30;78.60;;;;;;5035587;28;20223;-79
2023/05/09 11:47:52;;;;;;;0.30;0.30;;;21.50;75.10;;;;;;5035755;28;20194;-80
2023/05/09 11:50:19;;;;;;;0.82;0.60;;;21.10;74.10;;;;;;5053576;28;20562;-80
2023/05/09 11:52:46;;;;;;;1.15;0.85;;;21.30;76.70;;;;;;5053416;28;20212;-79
2023/05/09 11:55:14;;;;;;;0.65;0.50;;;21.50;79.50;;;;;;5035582;28;20205;-79
2023/05/09 11:57:41;;;;;;;0.30;0.30;;;22.00;80.70;;;;;;5035530;28;20610;-79
2023/05/09 12:00:09;;;;;;;0.30;0.30;;;22.90;75.60;;;;;;5053291;28;20691;-80
2023/05/09 12:02:35;;;;;;;0.40;0.40;;;22.00;74.80;;;;;;5052971;28;20196;-80
2023/05/09 12:05:12;;;;;;;0.38;0.38;;;21.90;77.00;;;;;;5053237;28;20225;-80
2023/05/09 12:07:39;;;;;;;0.47;0.47;;;21.80;75.80;;;;;;5053293;28;20200;-79
2023/05/09 12:10:07;;;;;;;0.35;0.35;;;22.00;72.80;;;;;;5053343;28;20194;-80
2023/05/09 12:12:45;;;;;;;0.50;0.50;;;21.80;72.30;;;;;;5053097;28;20193;-80
2023/05/09 12:15:12;;;;;;;2.47;1.15;;;22.50;76.40;;;;;;5053045;28;20177;-80
2023/05/09 12:17:38;;;;;;;0.73;0.63;;;22.60;72.20;;;;;;5053100;28;20192;-79
2023/05/09 12:20:05;;;;;;;1.33;0.55;;;23.00;71.70;;;;;;5053113;28;20668;-80
2023/05/09 12:22:31;;;;;;;0.70;0.70;;;22.40;70.80;;;;;;5052925;28;20667;-79
2023/05/09 12:25:01;;;;;;;0.45;0.45;;;22.40;71.80;;;;;;5052614;28;20174;-80
2023/05/09 12:27:28;;;;;;;0.25;0.25;;;22.80;74.10;;;;;;5052891;28;20575;-80
2023/05/09 12:29:54;;;;;;;0.40;0.40;;;23.40;73.80;;;;;;5053198;28;20556;-80
2023/05/09 12:32:20;;;;;;;1.08;0.98;;;23.30;67.80;;;;;;5052812;28;20276;-79
2023/05/09 12:34:47;;;;;;;4.07;0.60;;;23.40;69.70;;;;;;5052876;28;20197;-79
2023/05/09 12:37:18;;;;;;;1.02;0.40;;;23.90;70.00;;;;;;5052650;28;20628;-80
2023/05/09 12:39:58;;;;;;;0.45;0.45;;;23.80;67.20;;;;;;5034821;28;20236;-80
2023/05/09 12:42:30;;;;;;;0.70;0.55;;;24.10;68.70;;;;;;5052552;28;20200;-78
2023/05/09 12:44:56;;;;;;;0.60;0.45;;;24.20;67.60;;;;;;5052696;28;20194;-79
2023/05/09 12:47:26;;;;;;;0.68;0.47;;;24.40;67.10;;;;;;5052387;28;20208;-78
2023/05/09 12:49:51;;;;;;;0.30;0.30;;;24.10;64.10;;;;;;5052726;28;20194;-81
2023/05/09 12:52:19;;;;;;;1.13;0.73;;;24.20;67.80;;;;;;5046506;28;20201;-81
2023/05/09 12:54:47;;;;;;;0.30;0.30;;;24.30;67.20;;;;;;5052613;28;20200;-80